Time;durP1;ratioP1;P1;durP2;ratioP2;P2;SDS_P1;SDS_P2;PMS_P1;PMS_P2;Temp;Humidity;BMP_temperature;BMP_pressure;BME280_temperature;BME280_humidity;BME280_pressure;Samples;Min_cycle;Max_cycle;Signal;HPM_P1;HPM_P2
2022/05/26 00:01:53;;;;;;;7.10;6.13;;;;;;;25.85;55.51;101198.69;5116168;28;20039;-80
2022/05/26 00:04:21;;;;;;;9.32;7.43;;;;;;;25.85;55.56;101204.09;5115370;28;20474;-80
2022/05/26 00:06:48;;;;;;;8.63;7.20;;;;;;;25.85;55.51;101204.09;5115682;28;20075;-79
2022/05/26 00:09:15;;;;;;;9.88;7.10;;;;;;;25.84;55.63;101208.66;5097780;28;20060;-79
2022/05/26 00:11:42;;;;;;;9.88;6.90;;;;;;;25.85;55.54;101202.25;5114940;28;20043;-79
2022/05/26 00:14:11;;;;;;;7.18;6.47;;;;;;;25.86;55.53;101203.09;5112492;28;20046;-79
2022/05/26 00:16:42;;;;;;;7.10;6.40;;;;;;;25.86;55.53;101208.50;5115755;28;20047;-79
2022/05/26 00:19:11;;;;;;;8.52;7.05;;;;;;;25.87;55.52;101204.78;5114263;28;20052;-80
2022/05/26 00:21:38;;;;;;;9.05;6.90;;;;;;;25.87;55.51;101204.78;5115427;28;20046;-79
2022/05/26 00:24:06;;;;;;;6.72;6.10;;;;;;;25.86;55.48;101198.50;5115684;28;20039;-79
2022/05/26 00:26:34;;;;;;;10.27;6.63;;;;;;;25.86;55.52;101195.78;5115204;28;20054;-79
2022/05/26 00:29:01;;;;;;;8.18;7.38;;;;;;;25.86;55.44;101200.38;5115328;28;20054;-79
2022/05/26 00:31:28;;;;;;;9.68;6.80;;;;;;;25.87;55.52;101191.22;5114859;28;20490;-79
2022/05/26 00:33:56;;;;;;;7.55;6.75;;;;;;;25.87;55.33;101194.78;5095874;28;20043;-79
2022/05/26 00:36:39;;;;;;;10.48;7.05;;;;;;;25.87;55.49;101192.06;5093429;28;20055;-79
2022/05/26 00:39:18;;;;;;;7.63;6.93;;;;;;;25.88;55.41;101191.03;5094024;28;20055;-80
2022/05/26 00:41:51;;;;;;;7.35;6.75;;;;;;;25.89;55.56;101194.63;5093421;28;20051;-80
2022/05/26 00:44:18;;;;;;;6.35;5.75;;;;;;;25.88;55.26;101187.47;5095044;28;20052;-80
2022/05/26 00:47:03;;;;;;;7.57;6.78;;;;;;;25.86;55.46;101179.50;5095656;28;20368;-80
2022/05/26 00:49:53;;;;;;;7.55;6.18;;;;;;;25.87;55.46;101180.34;5094949;28;20063;-80
2022/05/26 00:52:33;;;;;;;7.68;5.95;;;;;;;25.88;55.35;101187.47;5092890;28;20514;-79
2022/05/26 00:55:07;;;;;;;8.23;7.43;;;;;;;25.88;55.30;101184.75;5093520;28;20048;-80
2022/05/26 00:57:39;;;;;;;8.40;6.78;;;;;;;25.88;55.45;101192.91;5093291;28;20522;-80
2022/05/26 01:00:12;;;;;;;7.68;6.88;;;;;;;25.88;55.17;101204.59;5093473;28;20044;-80
2022/05/26 01:02:48;;;;;;;8.10;6.43;;;;;;;25.87;55.29;101197.47;5093246;28;20127;-80
2022/05/26 01:05:25;;;;;;;8.05;6.75;;;;;;;25.87;55.32;101197.47;5093692;28;20044;-80
2022/05/26 01:07:55;;;;;;;8.00;6.45;;;;;;;25.88;55.46;101209.16;5091557;28;20048;-80
2022/05/26 01:10:23;;;;;;;9.77;7.68;;;;;;;25.87;55.04;101208.34;5094829;28;20048;-79
2022/05/26 01:12:50;;;;;;;7.40;6.47;;;;;;;25.88;55.25;101220.88;5093786;28;20047;-80
2022/05/26 01:15:21;;;;;;;7.25;6.53;;;;;;;25.87;55.17;101208.34;5100041;28;20403;-80
2022/05/26 01:17:54;;;;;;;7.43;6.55;;;;;;;25.86;55.06;101213.94;5112669;28;20479;-79
2022/05/26 01:20:54;;;;;;;8.65;5.95;;;;;;;25.86;55.04;101217.50;5112356;28;20047;-79
2022/05/26 01:23:46;;;;;;;7.43;6.68;;;;;;;25.87;55.09;101212.91;5106265;28;20067;-80
2022/05/26 01:26:38;;;;;;;8.15;7.35;;;;;;;25.87;55.07;101213.75;5114649;28;20055;-79
2022/05/26 01:29:11;;;;;;;7.97;6.60;;;;;;;25.86;55.00;101206.63;5113730;28;20047;-79
2022/05/26 01:31:49;;;;;;;8.95;7.57;;;;;;;25.87;54.73;101200.19;5114926;28;20036;-79
2022/05/26 01:34:52;;;;;;;8.93;6.78;;;;;;;25.88;55.05;101192.91;5115126;28;20521;-79
2022/05/26 01:37:42;;;;;;;8.70;6.93;;;;;;;25.87;55.04;101199.34;5114379;28;20048;-79
2022/05/26 01:40:22;;;;;;;10.23;6.97;;;;;;;25.87;54.93;101204.78;5114755;28;20047;-79
2022/05/26 01:43:03;;;;;;;8.68;7.32;;;;;;;25.86;54.99;101201.22;5114626;28;20395;-79
2022/05/26 01:45:50;;;;;;;8.30;7.22;;;;;;;25.87;54.95;101208.34;5115445;28;20052;-80
2022/05/26 01:48:28;;;;;;;8.75;6.93;;;;;;;25.87;55.09;101202.06;5096668;28;20058;-80
2022/05/26 01:51:15;;;;;;;10.48;7.13;;;;;;;25.86;54.82;101203.94;5115393;28;20044;-80
2022/05/26 01:53:42;;;;;;;7.95;7.15;;;;;;;25.87;54.84;101213.75;5118810;28;20043;-80
2022/05/26 01:56:28;;;;;;;8.10;7.35;;;;;;;25.87;54.92;101207.47;5118014;28;20043;-80
2022/05/26 01:59:03;;;;;;;8.45;6.88;;;;;;;25.87;54.92;101212.91;5118093;28;20388;-80
2022/05/26 02:01:36;;;;;;;10.90;7.00;;;;;;;25.87;54.84;101223.75;5117805;27;20052;-80
2022/05/26 02:04:24;;;;;;;10.50;6.60;;;;;;;25.86;54.93;101217.50;5119130;28;20399;-80
2022/05/26 02:07:04;;;;;;;8.73;7.20;;;;;;;25.87;54.80;101221.03;5117725;28;20054;-80
2022/05/26 02:09:41;;;;;;;8.32;6.10;;;;;;;25.87;54.88;101219.19;5117260;28;20047;-80
2022/05/26 02:12:19;;;;;;;11.88;6.70;;;;;;;25.87;54.60;101218.34;5118546;28;20481;-80
2022/05/26 02:14:53;;;;;;;8.00;7.05;;;;;;;25.86;54.85;101216.66;5117944;28;20051;-80
2022/05/26 02:17:32;;;;;;;8.57;7.28;;;;;;;25.87;54.71;101212.91;5115479;28;20055;-81
2022/05/26 02:20:05;;;;;;;11.43;7.57;;;;;;;25.87;54.64;101215.63;5096665;28;20044;-80
2022/05/26 02:22:41;;;;;;;7.50;6.70;;;;;;;25.85;54.65;101207.66;5098345;28;20044;-80
2022/05/26 02:25:23;;;;;;;8.38;7.28;;;;;;;25.86;54.71;101201.22;5097399;28;20036;-80
2022/05/26 02:27:54;;;;;;;10.82;7.78;;;;;;;25.86;54.64;101211.22;5096129;28;20047;-79
2022/05/26 02:30:25;;;;;;;8.90;7.05;;;;;;;25.85;54.55;101209.53;5097396;28;20425;-80
2022/05/26 02:32:54;;;;;;;11.95;8.80;;;;;;;25.86;54.50;101203.94;5101483;28;20044;-79
2022/05/26 02:35:28;;;;;;;11.25;7.30;;;;;;;25.86;54.53;101205.78;5117297;28;20405;-79
2022/05/26 02:38:04;;;;;;;8.07;7.18;;;;;;;25.85;54.59;101210.38;5118475;28;20051;-79
2022/05/26 02:40:31;;;;;;;9.30;7.80;;;;;;;25.86;54.39;101213.94;5118245;28;20398;-79
2022/05/26 02:43:13;;;;;;;9.50;7.70;;;;;;;25.86;54.58;101211.22;5117700;28;20040;-79
2022/05/26 02:45:47;;;;;;;10.30;8.25;;;;;;;25.86;54.46;101212.06;5114229;28;20051;-79
2022/05/26 02:48:14;;;;;;;8.57;7.72;;;;;;;25.85;54.45;101217.66;5116566;28;20051;-79
2022/05/26 02:50:55;;;;;;;8.88;7.32;;;;;;;25.85;54.54;101210.38;5117214;28;20467;-79
2022/05/26 02:53:48;;;;;;;10.15;7.82;;;;;;;25.85;54.50;101209.53;5116425;28;20379;-79
2022/05/26 02:56:33;;;;;;;11.77;8.35;;;;;;;25.85;54.27;101204.94;5116127;28;20048;-79
2022/05/26 02:59:03;;;;;;;9.48;7.68;;;;;;;25.86;54.34;101205.78;5117791;28;20445;-79
2022/05/26 03:01:43;;;;;;;11.50;8.10;;;;;;;25.85;54.56;101202.25;5118513;28;20052;-79
2022/05/26 03:04:15;;;;;;;12.13;7.75;;;;;;;25.86;54.61;101197.66;5116704;28;20409;-79
2022/05/26 03:06:49;;;;;;;8.68;7.65;;;;;;;25.86;54.65;101198.50;5119325;28;20047;-78
2022/05/26 03:09:18;;;;;;;9.75;7.30;;;;;;;25.86;54.88;101195.78;5119051;28;20052;-79
2022/05/26 03:11:51;;;;;;;10.93;7.40;;;;;;;25.87;54.57;101202.06;5117080;28;20403;-79
2022/05/26 03:14:20;;;;;;;8.40;7.13;;;;;;;25.87;54.62;101212.91;5114743;28;20052;-79
2022/05/26 03:16:47;;;;;;;9.50;8.30;;;;;;;25.87;54.62;101215.63;5111539;28;20051;-79
2022/05/26 03:19:16;;;;;;;8.95;7.05;;;;;;;25.88;54.51;101214.59;5116653;28;20501;-79
2022/05/26 03:21:43;;;;;;;10.70;7.78;;;;;;;25.88;54.67;101222.72;5116360;28;20039;-79
2022/05/26 03:24:12;;;;;;;8.40;7.50;;;;;;;25.86;54.56;101217.50;5116342;28;20044;-79
2022/05/26 03:26:39;;;;;;;11.10;7.28;;;;;;;25.87;54.46;101218.34;5115041;28;20047;-78
2022/05/26 03:29:07;;;;;;;8.38;7.15;;;;;;;25.86;54.61;101219.34;5117268;28;20051;-78
2022/05/26 03:31:34;;;;;;;8.20;6.82;;;;;;;25.87;54.52;101223.75;5116829;28;20188;-78
2022/05/26 03:42:20;;;;;;;8.27;7.45;;;;;;;25.86;54.52;101268.19;5114491;28;20483;-79
2022/05/26 03:44:48;;;;;;;9.80;7.68;;;;;;;25.85;54.62;101261.91;5113242;28;20059;-78
2022/05/26 03:47:15;;;;;;;10.02;7.00;;;;;;;25.86;54.58;101268.19;5115142;28;20096;-78
2022/05/26 03:49:42;;;;;;;8.13;7.32;;;;;;;25.85;54.57;101261.06;5116800;28;20054;-78
2022/05/26 03:52:10;;;;;;;10.23;8.30;;;;;;;25.85;54.58;101264.63;5115708;28;20047;-79
2022/05/26 03:54:38;;;;;;;9.82;7.68;;;;;;;25.85;54.44;101272.75;5116439;28;20055;-78
2022/05/26 03:57:06;;;;;;;11.80;8.05;;;;;;;25.86;54.49;101276.31;5116775;28;20146;-79
2022/05/26 03:59:34;;;;;;;9.57;8.18;;;;;;;25.85;54.52;101270.06;5116328;28;20051;-79
2022/05/26 04:02:02;;;;;;;10.43;9.25;;;;;;;25.85;54.47;101271.91;5116433;28;20051;-79
2022/05/26 04:04:30;;;;;;;10.00;8.48;;;;;;;25.84;54.46;101281.03;5116031;28;20391;-80
2022/05/26 04:06:57;;;;;;;10.10;7.95;;;;;;;25.85;54.29;101285.47;5114680;28;20047;-79
2022/05/26 04:09:25;;;;;;;9.82;8.32;;;;;;;25.85;54.50;101282.75;5115305;28;20047;-80
2022/05/26 04:11:53;;;;;;;10.55;9.18;;;;;;;25.84;54.45;101281.03;5116149;28;20048;-79
2022/05/26 04:14:21;;;;;;;9.75;8.60;;;;;;;25.84;54.46;101278.31;5114117;28;20051;-79
2022/05/26 04:16:48;;;;;;;10.30;8.07;;;;;;;25.84;54.50;101278.31;5115335;28;20051;-79
2022/05/26 04:19:15;;;;;;;9.20;8.30;;;;;;;25.84;54.39;101289.19;5113519;28;20050;-79
2022/05/26 04:24:28;;;;;;;11.88;8.27;;;;;;;25.83;54.44;101282.91;5115705;28;20070;-79
2022/05/26 04:26:56;;;;;;;11.30;8.57;;;;;;;25.83;54.46;101291.03;5115915;28;20049;-79
2022/05/26 04:29:23;;;;;;;9.27;7.95;;;;;;;25.83;54.42;101285.63;5115397;28;20483;-80
2022/05/26 04:31:51;;;;;;;9.40;7.82;;;;;;;25.84;54.53;101289.19;5115267;28;20044;-80
2022/05/26 04:34:19;;;;;;;10.23;7.65;;;;;;;25.83;54.60;101296.47;5115074;28;20043;-80
2022/05/26 04:36:47;;;;;;;9.27;8.38;;;;;;;25.82;54.45;101292.06;5114033;28;20048;-79
2022/05/26 04:39:16;;;;;;;10.50;8.45;;;;;;;25.83;54.41;101293.75;5114292;28;20055;-79
2022/05/26 04:41:44;;;;;;;10.88;7.78;;;;;;;25.83;54.45;101290.19;5113631;28;20044;-80
2022/05/26 04:44:14;;;;;;;9.82;7.57;;;;;;;25.83;54.52;101282.06;5115118;28;20048;-79
2022/05/26 04:46:41;;;;;;;12.07;7.38;;;;;;;25.83;54.47;101291.03;5113843;28;20048;-80
2022/05/26 04:49:09;;;;;;;9.48;7.32;;;;;;;25.84;54.54;101291.88;5114039;28;20052;-79
2022/05/26 04:51:38;;;;;;;11.52;7.10;;;;;;;25.84;54.59;101305.44;5113307;28;20044;-79
2022/05/26 04:54:06;;;;;;;11.63;7.00;;;;;;;25.83;54.49;101312.75;5115044;28;20387;-79
2022/05/26 04:56:34;;;;;;;9.65;7.50;;;;;;;25.84;54.51;101321.72;5113528;28;20052;-79
2022/05/26 04:59:01;;;;;;;8.48;7.32;;;;;;;25.83;54.61;101326.31;5114387;28;20117;-79
2022/05/26 05:01:29;;;;;;;7.68;6.88;;;;;;;25.83;54.50;101331.72;5114638;28;20051;-79
2022/05/26 05:03:56;;;;;;;11.20;7.05;;;;;;;25.84;54.57;101335.28;5115111;28;20048;-79
2022/05/26 05:06:24;;;;;;;10.85;7.90;;;;;;;25.83;54.53;101323.59;5115280;28;20044;-79
2022/05/26 05:08:51;;;;;;;8.63;7.70;;;;;;;25.83;54.55;101329.03;5115245;28;20052;-79
2022/05/26 05:11:19;;;;;;;8.77;7.70;;;;;;;25.83;54.57;101342.59;5115281;28;20047;-79
2022/05/26 05:13:46;;;;;;;11.25;7.38;;;;;;;25.84;54.40;101343.44;5114486;28;20036;-79
2022/05/26 05:16:22;;;;;;;9.55;7.72;;;;;;;25.83;54.43;101347.16;5115082;28;20040;-80
2022/05/26 05:18:50;;;;;;;9.07;7.40;;;;;;;25.84;54.46;101359.69;5114939;28;20111;-79
2022/05/26 05:21:23;;;;;;;9.93;7.32;;;;;;;25.84;54.45;101362.41;5110821;28;20040;-79
2022/05/26 05:23:57;;;;;;;8.85;7.82;;;;;;;25.84;54.33;101354.28;5114473;28;20044;-79
2022/05/26 05:26:27;;;;;;;8.00;7.18;;;;;;;25.83;54.41;101364.28;5115387;28;20126;-79
2022/05/26 05:29:04;;;;;;;11.48;7.85;;;;;;;25.83;54.47;101364.28;5119261;28;20055;-78
2022/05/26 05:31:41;;;;;;;8.98;6.60;;;;;;;25.83;54.42;101358.84;5119895;28;20058;-79
2022/05/26 05:34:20;;;;;;;11.13;7.95;;;;;;;25.84;54.32;101362.41;5120201;28;20039;-79
2022/05/26 05:36:48;;;;;;;9.50;7.55;;;;;;;25.84;54.58;101365.13;5118763;28;20056;-79
2022/05/26 05:39:16;;;;;;;7.68;6.88;;;;;;;25.84;54.77;101381.41;5118343;28;20048;-80
2022/05/26 05:41:43;;;;;;;11.98;9.18;;;;;;;25.83;54.71;101377.84;5118195;28;20062;-79
2022/05/26 05:44:11;;;;;;;11.43;9.43;;;;;;;25.82;54.56;101378.00;5116950;28;20048;-78
2022/05/26 05:46:53;;;;;;;12.32;11.07;;;;;;;25.80;54.58;101385.44;5118336;28;20426;-78
2022/05/26 05:49:23;;;;;;;11.73;9.65;;;;;;;25.76;54.66;101384.88;5117359;28;20047;-79
2022/05/26 05:51:51;;;;;;;12.38;10.93;;;;;;;25.74;54.57;101386.06;5117834;28;20040;-79
2022/05/26 05:54:19;;;;;;;13.38;10.50;;;;;;;25.71;54.68;101386.38;5117792;28;20039;-79
2022/05/26 05:56:48;;;;;;;12.68;9.85;;;;;;;25.71;54.72;101386.38;5117922;28;20048;-79
2022/05/26 05:59:15;;;;;;;13.43;11.23;;;;;;;25.69;54.66;101399.28;5117534;28;20479;-79
2022/05/26 06:01:42;;;;;;;16.25;11.18;;;;;;;25.68;54.80;101394.84;5117335;28;20050;-78
2022/05/26 06:04:10;;;;;;;13.57;10.52;;;;;;;25.65;54.58;101401.44;5115847;28;20506;-79
2022/05/26 06:06:41;;;;;;;13.23;9.93;;;;;;;25.63;54.60;101407.00;5117727;28;20078;-78
2022/05/26 06:09:10;;;;;;;14.13;10.82;;;;;;;25.63;54.66;101406.16;5117835;28;20078;-79
2022/05/26 06:11:37;;;;;;;11.90;10.63;;;;;;;25.61;54.24;101409.06;5117766;28;20491;-78
2022/05/26 06:14:05;;;;;;;14.43;10.85;;;;;;;25.57;54.64;101406.81;5117761;28;20368;-79
2022/05/26 06:16:32;;;;;;;11.93;10.63;;;;;;;25.54;54.76;101405.25;5115719;28;20115;-79
2022/05/26 06:19:00;;;;;;;10.48;9.20;;;;;;;25.54;54.53;101407.97;5116853;28;20051;-78
2022/05/26 06:21:27;;;;;;;12.98;8.63;;;;;;;25.56;55.00;101410.50;5116711;28;20506;-79
2022/05/26 06:23:58;;;;;;;12.93;9.57;;;;;;;25.56;54.35;101403.25;5116832;28;20040;-78
2022/05/26 06:26:28;;;;;;;9.43;8.52;;;;;;;25.57;54.53;101407.66;5114976;28;20518;-78
2022/05/26 06:37:13;;;;;;;10.13;9.07;;;;;;;25.59;54.79;101402.91;5118037;28;20043;-79
2022/05/26 06:37:17;;;;;;;13.15;8.80;;;;;;;25.60;55.00;101407.34;5097017;28;20051;-80
2022/05/26 06:39:45;;;;;;;12.50;8.65;;;;;;;25.62;55.19;101413.44;5096409;28;20056;-80
2022/05/26 06:42:13;;;;;;;10.32;9.05;;;;;;;25.61;55.14;101425.31;5095886;28;20495;-82
2022/05/26 06:44:43;;;;;;;10.57;9.48;;;;;;;25.63;55.10;101427.84;5094698;28;20054;-81
2022/05/26 06:47:20;;;;;;;16.17;9.88;;;;;;;25.63;55.18;101439.56;5097778;28;20067;-82
2022/05/26 06:49:48;;;;;;;14.30;9.35;;;;;;;25.60;55.27;101441.72;5096409;28;20078;-81
2022/05/26 06:52:17;;;;;;;11.48;9.40;;;;;;;25.60;55.61;101439.91;5097043;28;20040;-80
2022/05/26 06:54:46;;;;;;;15.50;10.82;;;;;;;25.61;55.65;101436.16;5097791;28;20051;-80
2022/05/26 06:57:15;;;;;;;16.85;12.02;;;;;;;25.60;56.03;101431.75;5094481;28;20052;-81
2022/05/26 06:59:43;;;;;;;13.68;11.70;;;;;;;25.60;55.97;101445.31;5094758;28;20432;-81
2022/05/26 07:02:12;;;;;;;13.27;11.20;;;;;;;25.58;56.35;101452.75;5097913;28;20394;-83
2022/05/26 07:04:42;;;;;;;16.30;10.95;;;;;;;25.58;56.44;101450.03;5099348;28;20513;-82
2022/05/26 07:07:13;;;;;;;13.85;11.20;;;;;;;25.58;56.63;101444.59;5118455;28;20047;-82
2022/05/26 07:09:42;;;;;;;14.52;10.73;;;;;;;25.59;56.17;101453.59;5116698;28;20048;-84
2022/05/26 07:12:10;;;;;;;13.20;10.68;;;;;;;25.60;56.25;101455.28;5115646;28;20044;-79
2022/05/26 07:14:38;;;;;;;13.55;10.57;;;;;;;25.58;56.26;101446.47;5116375;28;20042;-81
2022/05/26 07:17:06;;;;;;;13.05;11.68;;;;;;;25.58;56.83;101460.03;5103475;28;20056;-80
2022/05/26 07:19:36;;;;;;;16.33;12.27;;;;;;;25.56;56.48;101462.03;5095578;28;20051;-87
2022/05/26 07:22:04;;;;;;;15.77;12.18;;;;;;;25.53;56.27;101465.09;5107569;28;20113;-83
2022/05/26 07:24:31;;;;;;;17.75;13.80;;;;;;;25.49;55.97;101464.53;5117692;28;20044;-82
2022/05/26 07:27:00;;;;;;;14.55;12.40;;;;;;;25.46;55.82;101461.28;5114805;27;20410;-81
2022/05/26 07:29:28;;;;;;;14.98;12.20;;;;;;;25.40;56.20;101460.91;5114706;28;20400;-81
2022/05/26 07:31:56;;;;;;;18.52;12.88;;;;;;;25.38;56.17;101456.66;5117730;28;20055;-83
2022/05/26 07:34:23;;;;;;;18.40;14.02;;;;;;;25.33;56.51;101453.56;5116973;28;20036;-83
2022/05/26 07:42:26;;;;;;;15.43;13.82;;;;;;;25.28;57.11;101450.44;5116297;28;20415;-82
2022/05/26 07:44:54;;;;;;;16.35;14.40;;;;;;;25.26;56.92;101447.06;5116650;28;20036;-81
2022/05/26 07:47:22;;;;;;;14.77;12.48;;;;;;;25.25;56.62;101438.09;5116349;28;20050;-84
2022/05/26 07:49:50;;;;;;;16.00;13.45;;;;;;;25.25;56.86;101437.22;5114311;27;20048;-83
2022/05/26 07:52:18;;;;;;;17.73;13.15;;;;;;;25.24;57.13;101433.69;5115761;28;20481;-81
2022/05/26 07:54:46;;;;;;;14.40;11.65;;;;;;;25.25;57.15;101440.78;5116107;28;20040;-78
2022/05/26 07:57:24;;;;;;;16.73;11.38;;;;;;;25.28;57.15;101443.19;5113752;28;20059;-84
2022/05/26 07:59:52;;;;;;;12.70;11.40;;;;;;;25.30;57.00;101448.44;5114302;28;20043;-83
2022/05/26 08:02:20;;;;;;;14.60;11.43;;;;;;;25.32;57.07;101438.28;5114782;28;20043;-83
2022/05/26 08:04:48;;;;;;;12.95;10.57;;;;;;;25.34;56.99;101436.28;5116153;28;20047;-79
2022/05/26 08:07:15;;;;;;;13.98;11.75;;;;;;;25.36;57.59;101437.84;5116585;28;20407;-82
2022/05/26 08:09:43;;;;;;;17.77;13.77;;;;;;;25.36;57.64;101440.56;5116589;28;20046;-81
2022/05/26 08:12:13;;;;;;;18.48;16.30;;;;;;;25.35;57.21;101433.41;5114502;28;20399;-82
2022/05/26 08:14:42;;;;;;;18.95;15.98;;;;;;;25.32;57.53;101438.28;5114580;28;20048;-80
2022/05/26 08:17:13;;;;;;;17.10;15.32;;;;;;;25.30;57.73;101443.03;5113838;28;20067;-84
2022/05/26 08:19:41;;;;;;;16.90;15.10;;;;;;;25.29;57.48;101446.75;5097151;28;20058;-80
2022/05/26 08:22:09;;;;;;;18.83;15.57;;;;;;;25.28;57.64;101443.19;5114610;28;20048;-82
2022/05/26 08:24:36;;;;;;;19.60;14.93;;;;;;;25.27;57.71;101446.88;5111248;28;20059;-84
2022/05/26 08:27:04;;;;;;;18.15;15.93;;;;;;;25.26;58.17;101444.34;5114220;28;20047;-85
2022/05/26 08:29:32;;;;;;;16.65;13.60;;;;;;;25.29;57.53;101450.31;5115722;28;20498;-83
2022/05/26 08:31:59;;;;;;;15.82;14.27;;;;;;;25.31;57.74;101444.72;5114631;28;20050;-84
2022/05/26 08:34:29;;;;;;;16.27;14.57;;;;;;;25.32;57.99;101447.28;5114556;28;20039;-82
2022/05/26 08:37:40;;;;;;;16.58;14.73;;;;;;;25.34;58.06;101447.13;5113982;28;20058;-81
2022/05/26 08:40:08;;;;;;;17.80;15.88;;;;;;;25.39;58.15;101451.06;5094792;28;20048;-81
2022/05/26 08:42:37;;;;;;;19.23;17.42;;;;;;;25.39;58.31;101459.19;5099228;28;20407;-82
2022/05/26 08:45:10;;;;;;;20.17;17.45;;;;;;;25.39;58.43;101463.75;5102568;28;20044;-80
2022/05/26 08:47:44;;;;;;;19.85;17.15;;;;;;;25.38;58.30;101470.19;5114976;28;20047;-79
2022/05/26 08:50:16;;;;;;;18.55;16.60;;;;;;;25.39;58.23;101463.75;5115019;28;20048;-82
2022/05/26 08:52:56;;;;;;;;;;;;;;;25.37;58.90;101471.22;5114616;28;20399;-81
2022/05/26 08:55:30;;;;;;;16.20;14.45;;;;;;;25.37;58.58;101468.50;5106054;28;20291;-78
2022/05/26 08:58:15;;;;;;;23.92;18.58;;;;;;;25.39;59.08;101471.91;5093640;28;20040;-83
2022/05/26 09:00:44;;;;;;;25.92;22.83;;;;;;;25.38;59.38;101473.75;5093898;28;20054;-82
2022/05/26 09:03:31;;;;;;;23.33;21.02;;;;;;;25.38;59.56;101479.19;5091924;28;20514;-81
2022/05/26 09:06:03;;;;;;;25.75;23.00;;;;;;;25.39;59.48;101482.75;5092919;28;20043;-86
2022/05/26 09:14:31;;;;;;;25.40;22.90;;;;;;;25.46;59.11;101482.97;5095261;28;20044;-81
2022/05/26 09:17:06;;;;;;;26.25;22.65;;;;;;;25.43;58.48;101484.13;5093860;28;20057;-79
2022/05/26 09:19:43;;;;;;;24.23;20.02;;;;;;;25.44;58.78;101487.69;5092541;28;20056;-80
2022/05/26 09:22:44;;;;;;;22.13;19.88;;;;;;;25.45;59.00;101492.13;5093634;28;20055;-84
2022/05/26 09:25:38;;;;;;;25.85;23.13;;;;;;;25.51;59.62;101491.47;5112787;28;20043;-79
2022/05/26 09:28:09;;;;;;;20.30;17.33;;;;;;;25.55;58.98;101493.72;5113506;28;20067;-80
2022/05/26 09:30:37;;;;;;;21.02;18.50;;;;;;;25.57;59.18;101494.44;5113733;28;20044;-78
2022/05/26 09:33:18;;;;;;;20.80;18.60;;;;;;;25.57;59.30;101505.28;5113466;28;20055;-77
2022/05/26 09:35:46;;;;;;;21.27;18.80;;;;;;;25.57;59.10;101510.69;5093153;28;20048;-82
2022/05/26 09:38:18;;;;;;;23.55;21.05;;;;;;;25.56;58.98;101511.72;5093674;28;20443;-81
2022/05/26 09:40:47;;;;;;;29.05;22.90;;;;;;;25.56;59.42;101525.28;5093413;28;20051;-78
2022/05/26 09:43:17;;;;;;;26.08;20.17;;;;;;;25.58;59.00;101516.97;5092640;28;20048;-78
2022/05/26 09:45:49;;;;;;;21.25;18.52;;;;;;;25.58;58.81;101530.53;5091161;28;20052;-76
2022/05/26 09:48:19;;;;;;;24.03;19.63;;;;;;;25.63;58.93;101534.47;5093165;28;20043;-78
2022/05/26 09:50:52;;;;;;;18.10;16.27;;;;;;;25.63;58.70;101534.47;5092892;28;20617;-78
2022/05/26 09:53:41;;;;;;;17.48;15.65;;;;;;;25.65;58.63;101545.16;5093272;28;20407;-78
2022/05/26 09:56:13;;;;;;;20.40;17.95;;;;;;;25.69;58.64;101545.72;5093198;28;20040;-78
2022/05/26 09:58:43;;;;;;;17.40;15.50;;;;;;;25.70;58.45;101542.84;5092736;28;20162;-78
2022/05/26 10:01:26;;;;;;;17.58;15.55;;;;;;;25.71;58.41;101549.09;5092753;28;20040;-82
2022/05/26 10:04:11;;;;;;;22.17;19.70;;;;;;;25.74;58.49;101556.94;5091432;28;20047;-80
2022/05/26 10:06:48;;;;;;;25.40;19.33;;;;;;;25.75;58.76;101555.91;5097014;28;20056;-78
2022/05/26 10:09:47;;;;;;;23.27;20.75;;;;;;;25.74;58.85;101541.50;5097046;28;20048;-81
2022/05/26 10:12:33;;;;;;;23.27;19.80;;;;;;;25.76;58.85;101553.03;5093780;28;20052;-79
2022/05/26 10:15:22;;;;;;;24.65;18.17;;;;;;;25.77;58.72;101560.22;5096787;28;20043;-77
2022/05/26 10:18:27;;;;;;;24.77;19.98;;;;;;;25.80;58.66;101554.47;5096058;28;20055;-78
2022/05/26 10:21:22;;;;;;;18.23;15.20;;;;;;;25.81;58.66;101549.91;5092620;28;20054;-79
2022/05/26 10:24:22;;;;;;;25.25;21.35;;;;;;;25.82;58.96;101557.03;5099144;28;20067;-82
2022/05/26 10:26:53;;;;;;;31.73;24.65;;;;;;;25.82;59.12;101555.16;5114620;28;20441;-80
2022/05/26 10:29:35;;;;;;;28.30;22.63;;;;;;;25.80;58.80;101553.59;5115836;28;20047;-81
2022/05/26 10:32:21;;;;;;;25.30;22.65;;;;;;;25.78;59.15;101556.50;5116765;28;20047;-78
2022/05/26 10:35:18;;;;;;;31.13;23.90;;;;;;;25.80;59.12;101564.47;5116363;28;20051;-79
2022/05/26 10:37:54;;;;;;;25.20;22.42;;;;;;;25.79;59.04;101557.34;5116642;28;20063;-80
2022/05/26 10:40:32;;;;;;;28.35;22.67;;;;;;;25.80;59.47;101569.88;5115701;27;20051;-79
2022/05/26 10:43:14;;;;;;;26.98;23.48;;;;;;;25.82;59.66;101570.59;5115704;28;20040;-80
2022/05/26 10:45:47;;;;;;;26.80;23.25;;;;;;;25.82;59.20;101582.28;5115704;28;20047;-80
2022/05/26 10:48:20;;;;;;;;;;;;;;;25.82;59.21;101571.44;5118128;28;20109;-84
2022/05/26 10:50:54;;;;;;;22.10;18.20;;;;;;;25.83;59.15;101575.00;5115882;28;20289;-79
2022/05/26 10:53:54;;;;;;;25.40;22.77;;;;;;;25.85;59.96;101570.28;5116964;28;20144;-82
2022/05/26 10:56:49;;;;;;;30.88;23.85;;;;;;;25.83;59.55;101561.44;5117945;28;20050;-83
2022/05/26 10:59:31;;;;;;;29.17;23.70;;;;;;;25.84;59.49;101571.28;5117805;28;20047;-85
2022/05/26 11:02:21;;;;;;;26.60;22.65;;;;;;;25.83;59.33;101551.44;5115865;27;20062;-81
2022/05/26 11:05:05;;;;;;;28.08;22.75;;;;;;;25.85;59.50;101552.16;5056836;28;20063;-81
2022/05/26 11:07:46;;;;;;;26.63;23.10;;;;;;;25.83;59.59;101535.16;5074088;28;20057;-82
2022/05/26 11:10:22;;;;;;;23.17;20.83;;;;;;;25.83;59.67;101529.75;5074260;28;20061;-82
2022/05/26 11:12:55;;;;;;;28.88;21.75;;;;;;;25.81;60.30;101526.34;5074056;28;20056;-82
2022/05/26 11:18:16;;;;;;;27.42;23.23;;;;;;;25.80;60.35;101535.47;5073995;28;20068;-81
2022/05/26 11:20:53;;;;;;;28.65;22.13;;;;;;;25.80;60.53;101545.47;5057362;28;20049;-82
2022/05/26 11:23:22;;;;;;;23.70;18.88;;;;;;;25.81;60.14;101547.19;5073260;28;20570;-83
2022/05/26 11:25:58;;;;;;;22.63;18.40;;;;;;;25.81;60.29;101549.91;5068656;28;20044;-83
2022/05/26 11:28:44;;;;;;;24.58;19.40;;;;;;;25.82;60.11;101563.31;5057839;28;20064;-82
2022/05/26 11:37:15;;;;;;;28.30;22.63;;;;;;;25.75;60.41;101542.34;5053366;28;20057;-81
2022/05/26 11:39:45;;;;;;;26.95;22.10;;;;;;;25.62;60.92;101540.91;5053263;28;20057;-81
2022/05/26 11:42:29;;;;;;;24.98;22.23;;;;;;;25.56;61.01;101544.25;5066717;28;20415;-81
2022/05/26 11:45:24;;;;;;;27.70;21.90;;;;;;;25.56;60.87;101537.94;5096402;28;20071;-82
2022/05/26 11:48:03;;;;;;;27.48;20.75;;;;;;;25.51;61.16;101540.28;5095874;28;20047;-82
2022/05/26 11:51:01;;;;;;;28.10;20.52;;;;;;;25.57;61.23;101524.25;5095609;28;20048;-82
2022/05/26 11:53:30;;;;;;;27.73;17.70;;;;;;;25.61;61.03;101519.38;5092677;28;20051;-82
2022/05/26 11:56:04;;;;;;;21.90;18.52;;;;;;;25.64;60.18;101519.91;5094516;28;20055;-82
2022/05/26 11:58:32;;;;;;;20.35;16.85;;;;;;;25.69;59.63;101519.44;5095602;28;20052;-81
2022/05/26 12:01:19;;;;;;;20.90;15.90;;;;;;;25.71;59.21;101519.28;5094339;28;20047;-86
2022/05/26 12:03:54;;;;;;;22.60;14.73;;;;;;;25.74;59.73;101518.97;5093597;28;20047;-89
2022/05/26 12:06:37;;;;;;;20.40;14.43;;;;;;;25.76;59.70;101508.78;5093353;28;20044;-86
2022/05/26 12:09:21;;;;;;;17.20;13.02;;;;;;;25.78;59.73;101513.09;5094419;28;20058;-84
2022/05/26 12:11:54;;;;;;;18.08;14.07;;;;;;;25.80;59.37;101505.63;5093968;28;20059;-82
2022/05/26 12:14:28;;;;;;;16.88;13.13;;;;;;;25.81;59.31;101507.34;5093921;28;20052;-84
2022/05/26 12:17:32;;;;;;;15.93;12.48;;;;;;;25.83;59.50;101509.91;5092853;28;20048;-89
2022/05/26 12:20:23;;;;;;;18.65;14.18;;;;;;;25.84;59.40;101495.31;5078057;28;20052;-83
2022/05/26 12:22:51;;;;;;;17.60;13.02;;;;;;;25.86;59.43;101498.75;5094435;28;20052;-80
2022/05/26 12:25:27;;;;;;;25.40;17.48;;;;;;;25.86;59.99;101493.31;5093955;28;20051;-82